sensor_id;sensor_type;location;lat;lon;timestamp;temperature;humidity
44277;DHT22;29973;43.742;1.236;2023-10-19T00:00:41;16.00;99.90
44277;DHT22;29973;43.742;1.236;2023-10-19T00:03:12;16.10;99.90
44277;DHT22;29973;43.742;1.236;2023-10-19T00:05:38;16.10;99.90
44277;DHT22;29973;43.742;1.236;2023-10-19T00:08:06;16.10;99.90
44277;DHT22;29973;43.742;1.236;2023-10-19T00:10:44;16.10;99.90
44277;DHT22;29973;43.742;1.236;2023-10-19T00:13:14;16.10;99.90
44277;DHT22;29973;43.742;1.236;2023-10-19T00:15:41;16.10;99.90
44277;DHT22;29973;43.742;1.236;2023-10-19T00:18:18;16.10;99.90
44277;DHT22;29973;43.742;1.236;2023-10-19T00:20:45;16.00;99.90
44277;DHT22;29973;43.742;1.236;2023-10-19T00:23:15;16.00;99.90
44277;DHT22;29973;43.742;1.236;2023-10-19T00:25:47;16.00;99.90
44277;DHT22;29973;43.742;1.236;2023-10-19T02:59:57;18.00;99.90
44277;DHT22;29973;43.742;1.236;2023-10-19T03:02:24;17.90;99.90
44277;DHT22;29973;43.742;1.236;2023-10-19T03:04:54;18.00;99.90
44277;DHT22;29973;43.742;1.236;2023-10-19T03:07:20;18.10;99.90
44277;DHT22;29973;43.742;1.236;2023-10-19T03:09:46;18.00;99.90
44277;DHT22;29973;43.742;1.236;2023-10-19T03:12:14;17.80;99.90
44277;DHT22;29973;43.742;1.236;2023-10-19T03:14:40;17.80;99.90
44277;DHT22;29973;43.742;1.236;2023-10-19T03:17:11;18.00;99.90
44277;DHT22;29973;43.742;1.236;2023-10-19T03:19:38;18.00;99.90
44277;DHT22;29973;43.742;1.236;2023-10-19T03:22:04;18.00;99.90
44277;DHT22;29973;43.742;1.236;2023-10-19T03:24:32;18.20;99.90
44277;DHT22;29973;43.742;1.236;2023-10-19T03:27:07;18.20;99.90
44277;DHT22;29973;43.742;1.236;2023-10-19T03:29:47;18.10;99.90
44277;DHT22;29973;43.742;1.236;2023-10-19T03:32:18;18.20;99.90
44277;DHT22;29973;43.742;1.236;2023-10-19T03:34:47;18.30;99.90
44277;DHT22;29973;43.742;1.236;2023-10-19T03:37:14;18.20;99.90
44277;DHT22;29973;43.742;1.236;2023-10-19T03:39:41;18.20;99.90
44277;DHT22;29973;43.742;1.236;2023-10-19T03:42:11;18.30;99.90
44277;DHT22;29973;43.742;1.236;2023-10-19T03:44:39;18.30;99.90
44277;DHT22;29973;43.742;1.236;2023-10-19T03:47:19;18.30;99.90
44277;DHT22;29973;43.742;1.236;2023-10-19T03:49:46;18.30;99.90
44277;DHT22;29973;43.742;1.236;2023-10-19T03:52:13;18.30;99.90
44277;DHT22;29973;43.742;1.236;2023-10-19T03:54:39;18.30;99.90
44277;DHT22;29973;43.742;1.236;2023-10-19T03:57:10;18.30;99.90
44277;DHT22;29973;43.742;1.236;2023-10-19T03:59:45;18.30;99.90
44277;DHT22;29973;43.742;1.236;2023-10-19T04:02:12;18.40;99.90
44277;DHT22;29973;43.742;1.236;2023-10-19T04:04:42;18.40;99.90
44277;DHT22;29973;43.742;1.236;2023-10-19T04:07:15;18.30;99.90
44277;DHT22;29973;43.742;1.236;2023-10-19T04:09:44;18.30;99.90
44277;DHT22;29973;43.742;1.236;2023-10-19T04:12:28;18.30;99.90
44277;DHT22;29973;43.742;1.236;2023-10-19T04:14:58;18.20;99.90
44277;DHT22;29973;43.742;1.236;2023-10-19T04:17:35;18.10;99.90
44277;DHT22;29973;43.742;1.236;2023-10-19T04:20:02;18.20;99.90
44277;DHT22;29973;43.742;1.236;2023-10-19T04:22:38;18.10;99.90
44277;DHT22;29973;43.742;1.236;2023-10-19T04:25:05;18.30;99.90
44277;DHT22;29973;43.742;1.236;2023-10-19T04:27:32;18.40;99.90
44277;DHT22;29973;43.742;1.236;2023-10-19T04:30:02;18.40;99.90
44277;DHT22;29973;43.742;1.236;2023-10-19T04:32:28;18.40;99.90
44277;DHT22;29973;43.742;1.236;2023-10-19T04:34:53;18.40;99.90
44277;DHT22;29973;43.742;1.236;2023-10-19T04:37:19;18.40;99.90
44277;DHT22;29973;43.742;1.236;2023-10-19T04:39:48;18.30;99.90
44277;DHT22;29973;43.742;1.236;2023-10-19T04:42:14;18.30;99.90
44277;DHT22;29973;43.742;1.236;2023-10-19T04:44:40;18.30;99.90
44277;DHT22;29973;43.742;1.236;2023-10-19T04:47:06;18.20;99.90
44277;DHT22;29973;43.742;1.236;2023-10-19T04:49:32;18.20;99.90
44277;DHT22;29973;43.742;1.236;2023-10-19T04:51:57;18.30;99.90
44277;DHT22;29973;43.742;1.236;2023-10-19T04:54:23;18.40;99.90
44277;DHT22;29973;43.742;1.236;2023-10-19T04:56:49;18.40;99.90
44277;DHT22;29973;43.742;1.236;2023-10-19T04:59:17;18.40;99.90
44277;DHT22;29973;43.742;1.236;2023-10-19T05:01:43;18.30;99.90
44277;DHT22;29973;43.742;1.236;2023-10-19T05:04:09;18.30;99.90
44277;DHT22;29973;43.742;1.236;2023-10-19T05:06:34;18.20;99.90
44277;DHT22;29973;43.742;1.236;2023-10-19T05:09:00;18.20;99.90
44277;DHT22;29973;43.742;1.236;2023-10-19T05:11:28;18.10;99.90
44277;DHT22;29973;43.742;1.236;2023-10-19T05:13:54;18.10;99.90
44277;DHT22;29973;43.742;1.236;2023-10-19T05:16:20;18.10;99.90
44277;DHT22;29973;43.742;1.236;2023-10-19T05:18:46;18.00;99.90
44277;DHT22;29973;43.742;1.236;2023-10-19T05:21:12;18.10;99.90
44277;DHT22;29973;43.742;1.236;2023-10-19T05:23:38;18.10;99.90
44277;DHT22;29973;43.742;1.236;2023-10-19T05:26:04;18.10;99.90
44277;DHT22;29973;43.742;1.236;2023-10-19T05:28:32;18.00;99.90
44277;DHT22;29973;43.742;1.236;2023-10-19T05:30:58;18.10;99.90
44277;DHT22;29973;43.742;1.236;2023-10-19T05:33:25;18.00;99.90
44277;DHT22;29973;43.742;1.236;2023-10-19T05:35:52;18.00;99.90
44277;DHT22;29973;43.742;1.236;2023-10-19T05:38:18;17.90;99.90
44277;DHT22;29973;43.742;1.236;2023-10-19T05:40:48;17.90;99.90
44277;DHT22;29973;43.742;1.236;2023-10-19T05:43:15;17.80;99.90
44277;DHT22;29973;43.742;1.236;2023-10-19T05:45:41;17.80;99.90
44277;DHT22;29973;43.742;1.236;2023-10-19T05:48:07;17.90;99.90
44277;DHT22;29973;43.742;1.236;2023-10-19T05:50:34;17.80;99.90
44277;DHT22;29973;43.742;1.236;2023-10-19T05:53:00;17.60;99.90
44277;DHT22;29973;43.742;1.236;2023-10-19T05:55:26;17.60;99.90
44277;DHT22;29973;43.742;1.236;2023-10-19T05:57:51;17.50;99.90
44277;DHT22;29973;43.742;1.236;2023-10-19T06:00:17;17.50;99.90
44277;DHT22;29973;43.742;1.236;2023-10-19T06:02:48;17.40;99.90
44277;DHT22;29973;43.742;1.236;2023-10-19T06:05:17;17.50;99.90
44277;DHT22;29973;43.742;1.236;2023-10-19T06:07:47;17.50;99.90
44277;DHT22;29973;43.742;1.236;2023-10-19T06:10:16;17.60;99.90
44277;DHT22;29973;43.742;1.236;2023-10-19T06:12:43;17.30;99.90
44277;DHT22;29973;43.742;1.236;2023-10-19T06:15:11;17.40;99.90
44277;DHT22;29973;43.742;1.236;2023-10-19T06:17:40;17.40;99.90
44277;DHT22;29973;43.742;1.236;2023-10-19T06:20:10;17.30;99.90
44277;DHT22;29973;43.742;1.236;2023-10-19T06:22:54;17.40;99.90
44277;DHT22;29973;43.742;1.236;2023-10-19T06:25:23;17.30;99.90
44277;DHT22;29973;43.742;1.236;2023-10-19T06:27:49;17.40;99.90
44277;DHT22;29973;43.742;1.236;2023-10-19T06:30:17;17.50;99.90
44277;DHT22;29973;43.742;1.236;2023-10-19T06:32:52;17.60;99.90
44277;DHT22;29973;43.742;1.236;2023-10-19T06:35:19;17.70;99.90
44277;DHT22;29973;43.742;1.236;2023-10-19T06:37:45;17.70;99.90
44277;DHT22;29973;43.742;1.236;2023-10-19T06:40:12;17.70;99.90
44277;DHT22;29973;43.742;1.236;2023-10-19T06:42:41;17.70;99.90
44277;DHT22;29973;43.742;1.236;2023-10-19T06:45:07;17.70;99.90
44277;DHT22;29973;43.742;1.236;2023-10-19T06:47:33;17.80;99.90
44277;DHT22;29973;43.742;1.236;2023-10-19T06:50:05;17.80;99.90
44277;DHT22;29973;43.742;1.236;2023-10-19T06:52:33;17.80;99.90
44277;DHT22;29973;43.742;1.236;2023-10-19T06:55:02;17.80;99.90
44277;DHT22;29973;43.742;1.236;2023-10-19T06:57:28;17.80;99.90
44277;DHT22;29973;43.742;1.236;2023-10-19T06:59:54;17.80;99.90
44277;DHT22;29973;43.742;1.236;2023-10-19T07:02:20;17.80;99.90
44277;DHT22;29973;43.742;1.236;2023-10-19T07:04:46;17.80;99.90
44277;DHT22;29973;43.742;1.236;2023-10-19T07:07:13;17.90;99.90
44277;DHT22;29973;43.742;1.236;2023-10-19T07:09:39;17.90;99.90
44277;DHT22;29973;43.742;1.236;2023-10-19T07:12:07;17.90;99.90
44277;DHT22;29973;43.742;1.236;2023-10-19T07:14:33;18.00;99.90
44277;DHT22;29973;43.742;1.236;2023-10-19T07:16:59;18.00;99.90
44277;DHT22;29973;43.742;1.236;2023-10-19T07:19:25;18.00;99.90
44277;DHT22;29973;43.742;1.236;2023-10-19T07:21:51;18.00;99.90
44277;DHT22;29973;43.742;1.236;2023-10-19T07:24:23;18.10;99.90
44277;DHT22;29973;43.742;1.236;2023-10-19T07:26:52;18.10;99.90
44277;DHT22;29973;43.742;1.236;2023-10-19T07:29:31;18.20;99.90
44277;DHT22;29973;43.742;1.236;2023-10-19T07:31:57;18.20;99.90
44277;DHT22;29973;43.742;1.236;2023-10-19T07:34:24;18.20;99.90
44277;DHT22;29973;43.742;1.236;2023-10-19T07:36:56;18.20;99.90
44277;DHT22;29973;43.742;1.236;2023-10-19T07:39:25;18.20;99.90
44277;DHT22;29973;43.742;1.236;2023-10-19T07:41:57;18.30;99.90
44277;DHT22;29973;43.742;1.236;2023-10-19T07:44:23;18.30;99.90
44277;DHT22;29973;43.742;1.236;2023-10-19T07:46:49;18.20;99.90
44277;DHT22;29973;43.742;1.236;2023-10-19T07:49:15;18.20;99.90
44277;DHT22;29973;43.742;1.236;2023-10-19T07:51:45;18.30;99.90
44277;DHT22;29973;43.742;1.236;2023-10-19T07:54:11;18.40;99.90
44277;DHT22;29973;43.742;1.236;2023-10-19T07:56:37;18.60;99.90
44277;DHT22;29973;43.742;1.236;2023-10-19T07:59:03;19.00;99.90
44277;DHT22;29973;43.742;1.236;2023-10-19T08:01:29;19.40;99.90
44277;DHT22;29973;43.742;1.236;2023-10-19T08:03:54;19.80;99.90
44277;DHT22;29973;43.742;1.236;2023-10-19T08:06:20;20.00;99.90
44277;DHT22;29973;43.742;1.236;2023-10-19T08:08:46;20.10;99.90
44277;DHT22;29973;43.742;1.236;2023-10-19T08:11:12;19.90;99.90
44277;DHT22;29973;43.742;1.236;2023-10-19T08:13:38;19.90;99.90
44277;DHT22;29973;43.742;1.236;2023-10-19T08:16:05;19.70;99.90
44277;DHT22;29973;43.742;1.236;2023-10-19T08:18:33;19.70;99.90
44277;DHT22;29973;43.742;1.236;2023-10-19T08:21:01;19.60;99.90
44277;DHT22;29973;43.742;1.236;2023-10-19T08:23:28;19.50;99.90
44277;DHT22;29973;43.742;1.236;2023-10-19T08:25:54;19.50;99.90
44277;DHT22;29973;43.742;1.236;2023-10-19T08:28:21;19.40;99.90
44277;DHT22;29973;43.742;1.236;2023-10-19T08:30:47;19.30;99.90
44277;DHT22;29973;43.742;1.236;2023-10-19T08:33:23;19.30;99.90
44277;DHT22;29973;43.742;1.236;2023-10-19T08:35:54;19.30;99.90
44277;DHT22;29973;43.742;1.236;2023-10-19T08:38:20;19.30;99.90
44277;DHT22;29973;43.742;1.236;2023-10-19T08:40:47;19.30;99.90
44277;DHT22;29973;43.742;1.236;2023-10-19T08:43:14;19.30;99.90
44277;DHT22;29973;43.742;1.236;2023-10-19T08:45:43;19.40;99.90
44277;DHT22;29973;43.742;1.236;2023-10-19T08:48:10;19.30;99.90
44277;DHT22;29973;43.742;1.236;2023-10-19T08:50:36;19.30;99.90
44277;DHT22;29973;43.742;1.236;2023-10-19T08:53:06;19.30;99.90
44277;DHT22;29973;43.742;1.236;2023-10-19T08:55:34;19.20;99.90
44277;DHT22;29973;43.742;1.236;2023-10-19T08:58:00;19.20;99.90
44277;DHT22;29973;43.742;1.236;2023-10-19T09:00:27;19.30;99.90
44277;DHT22;29973;43.742;1.236;2023-10-19T09:02:53;19.30;99.90
44277;DHT22;29973;43.742;1.236;2023-10-19T09:05:20;19.30;99.90
44277;DHT22;29973;43.742;1.236;2023-10-19T09:07:51;19.30;99.90
44277;DHT22;29973;43.742;1.236;2023-10-19T09:10:28;19.40;99.90
44277;DHT22;29973;43.742;1.236;2023-10-19T09:13:01;19.40;99.90
44277;DHT22;29973;43.742;1.236;2023-10-19T09:17:55;19.50;99.90
44277;DHT22;29973;43.742;1.236;2023-10-19T09:20:21;19.50;99.90
44277;DHT22;29973;43.742;1.236;2023-10-19T09:22:56;19.50;99.90
44277;DHT22;29973;43.742;1.236;2023-10-19T09:25:23;19.30;99.90
44277;DHT22;29973;43.742;1.236;2023-10-19T09:27:50;19.30;99.90
44277;DHT22;29973;43.742;1.236;2023-10-19T09:30:17;19.30;99.90
44277;DHT22;29973;43.742;1.236;2023-10-19T09:32:48;19.30;99.90
44277;DHT22;29973;43.742;1.236;2023-10-19T09:35:15;19.30;99.90
44277;DHT22;29973;43.742;1.236;2023-10-19T09:37:42;19.30;99.90
44277;DHT22;29973;43.742;1.236;2023-10-19T09:40:11;19.30;99.90
44277;DHT22;29973;43.742;1.236;2023-10-19T09:42:44;19.20;99.90
44277;DHT22;29973;43.742;1.236;2023-10-19T09:45:19;19.30;99.90
44277;DHT22;29973;43.742;1.236;2023-10-19T09:47:50;19.30;99.90
44277;DHT22;29973;43.742;1.236;2023-10-19T09:50:16;19.50;99.90
44277;DHT22;29973;43.742;1.236;2023-10-19T09:52:42;19.60;99.90
44277;DHT22;29973;43.742;1.236;2023-10-19T09:57:53;19.90;99.90
44277;DHT22;29973;43.742;1.236;2023-10-19T10:00:21;20.10;99.90
44277;DHT22;29973;43.742;1.236;2023-10-19T10:02:50;20.50;99.90
44277;DHT22;29973;43.742;1.236;2023-10-19T10:05:52;20.90;99.90
44277;DHT22;29973;43.742;1.236;2023-10-19T10:10:49;20.90;99.90
44277;DHT22;29973;43.742;1.236;2023-10-19T10:13:36;20.70;99.90
44277;DHT22;29973;43.742;1.236;2023-10-19T10:16:01;21.20;99.90
44277;DHT22;29973;43.742;1.236;2023-10-19T10:18:32;21.20;99.90
44277;DHT22;29973;43.742;1.236;2023-10-19T10:23:49;21.10;99.90
44277;DHT22;29973;43.742;1.236;2023-10-19T10:26:17;21.40;99.90
44277;DHT22;29973;43.742;1.236;2023-10-19T10:31:35;21.90;99.90
44277;DHT22;29973;43.742;1.236;2023-10-19T10:34:08;23.10;99.90
44277;DHT22;29973;43.742;1.236;2023-10-19T10:37:01;23.60;99.90
44277;DHT22;29973;43.742;1.236;2023-10-19T10:39:28;22.80;99.90
44277;DHT22;29973;43.742;1.236;2023-10-19T10:42:00;22.40;99.90
44277;DHT22;29973;43.742;1.236;2023-10-19T10:47:19;22.00;99.90
44277;DHT22;29973;43.742;1.236;2023-10-19T10:49:52;22.30;99.90
44277;DHT22;29973;43.742;1.236;2023-10-19T10:52:36;22.60;99.90
44277;DHT22;29973;43.742;1.236;2023-10-19T10:55:09;22.60;99.90
44277;DHT22;29973;43.742;1.236;2023-10-19T10:57:40;22.80;99.90
44277;DHT22;29973;43.742;1.236;2023-10-19T11:00:13;22.70;99.90
44277;DHT22;29973;43.742;1.236;2023-10-19T11:02:43;22.60;99.90
44277;DHT22;29973;43.742;1.236;2023-10-19T11:05:10;22.70;99.90
44277;DHT22;29973;43.742;1.236;2023-10-19T11:07:38;22.60;99.90
44277;DHT22;29973;43.742;1.236;2023-10-19T11:10:04;22.50;99.90
44277;DHT22;29973;43.742;1.236;2023-10-19T11:12:31;22.80;99.90
44277;DHT22;29973;43.742;1.236;2023-10-19T11:14:58;23.40;99.90
44277;DHT22;29973;43.742;1.236;2023-10-19T11:17:26;23.60;99.90
44277;DHT22;29973;43.742;1.236;2023-10-19T11:19:58;24.50;99.90
44277;DHT22;29973;43.742;1.236;2023-10-19T11:22:25;26.70;99.90
44277;DHT22;29973;43.742;1.236;2023-10-19T11:24:52;25.30;99.90
44277;DHT22;29973;43.742;1.236;2023-10-19T11:27:25;24.80;99.90
44277;DHT22;29973;43.742;1.236;2023-10-19T11:29:58;24.60;99.90
44277;DHT22;29973;43.742;1.236;2023-10-19T11:32:25;24.00;99.90
44277;DHT22;29973;43.742;1.236;2023-10-19T11:34:57;24.50;99.90
44277;DHT22;29973;43.742;1.236;2023-10-19T11:37:23;25.50;99.90
44277;DHT22;29973;43.742;1.236;2023-10-19T11:39:48;26.30;99.90
44277;DHT22;29973;43.742;1.236;2023-10-19T11:42:18;26.70;99.90
44277;DHT22;29973;43.742;1.236;2023-10-19T11:44:44;26.60;99.90
44277;DHT22;29973;43.742;1.236;2023-10-19T11:47:10;26.20;99.90
44277;DHT22;29973;43.742;1.236;2023-10-19T11:49:36;27.50;99.90
44277;DHT22;29973;43.742;1.236;2023-10-19T11:52:06;28.70;99.90
44277;DHT22;29973;43.742;1.236;2023-10-19T11:54:33;27.80;99.90
44277;DHT22;29973;43.742;1.236;2023-10-19T11:56:59;27.80;99.90
44277;DHT22;29973;43.742;1.236;2023-10-19T11:59:25;27.20;99.90
44277;DHT22;29973;43.742;1.236;2023-10-19T12:01:52;25.90;99.90
44277;DHT22;29973;43.742;1.236;2023-10-19T12:04:18;24.70;99.90
44277;DHT22;29973;43.742;1.236;2023-10-19T12:06:44;24.40;99.90
44277;DHT22;29973;43.742;1.236;2023-10-19T12:09:13;24.40;99.90
44277;DHT22;29973;43.742;1.236;2023-10-19T12:11:41;24.00;99.90
44277;DHT22;29973;43.742;1.236;2023-10-19T12:14:15;23.50;99.90
44277;DHT22;29973;43.742;1.236;2023-10-19T12:16:41;23.30;99.90
44277;DHT22;29973;43.742;1.236;2023-10-19T12:19:07;23.20;99.90
44277;DHT22;29973;43.742;1.236;2023-10-19T12:21:33;23.00;99.90
44277;DHT22;29973;43.742;1.236;2023-10-19T12:23:59;23.10;99.90
44277;DHT22;29973;43.742;1.236;2023-10-19T12:26:27;22.90;99.90
44277;DHT22;29973;43.742;1.236;2023-10-19T12:28:56;23.10;99.90
44277;DHT22;29973;43.742;1.236;2023-10-19T12:31:22;23.20;99.90
44277;DHT22;29973;43.742;1.236;2023-10-19T12:33:48;23.20;99.90
44277;DHT22;29973;43.742;1.236;2023-10-19T12:36:14;23.30;99.90
44277;DHT22;29973;43.742;1.236;2023-10-19T12:38:57;23.40;99.90
44277;DHT22;29973;43.742;1.236;2023-10-19T12:41:23;23.40;99.90
44277;DHT22;29973;43.742;1.236;2023-10-19T12:43:50;23.60;99.90
44277;DHT22;29973;43.742;1.236;2023-10-19T12:46:26;24.00;99.90
44277;DHT22;29973;43.742;1.236;2023-10-19T12:48:56;25.40;99.90
44277;DHT22;29973;43.742;1.236;2023-10-19T12:51:23;25.80;99.90
44277;DHT22;29973;43.742;1.236;2023-10-19T12:53:51;25.50;99.90
44277;DHT22;29973;43.742;1.236;2023-10-19T12:56:18;24.40;99.90
44277;DHT22;29973;43.742;1.236;2023-10-19T12:58:44;24.30;99.90
44277;DHT22;29973;43.742;1.236;2023-10-19T13:01:09;24.20;99.90
44277;DHT22;29973;43.742;1.236;2023-10-19T13:03:43;23.80;99.90
44277;DHT22;29973;43.742;1.236;2023-10-19T13:06:11;23.80;99.90
44277;DHT22;29973;43.742;1.236;2023-10-19T13:08:38;23.50;99.90
44277;DHT22;29973;43.742;1.236;2023-10-19T13:11:09;23.30;99.90
44277;DHT22;29973;43.742;1.236;2023-10-19T13:13:41;23.00;99.90
44277;DHT22;29973;43.742;1.236;2023-10-19T13:16:07;22.80;99.90
44277;DHT22;29973;43.742;1.236;2023-10-19T13:18:35;22.70;99.90
44277;DHT22;29973;43.742;1.236;2023-10-19T13:21:01;22.60;99.90
44277;DHT22;29973;43.742;1.236;2023-10-19T13:23:37;22.70;99.90
44277;DHT22;29973;43.742;1.236;2023-10-19T13:26:02;22.90;99.90
44277;DHT22;29973;43.742;1.236;2023-10-19T13:28:40;23.10;99.90
44277;DHT22;29973;43.742;1.236;2023-10-19T13:31:08;23.20;99.90
44277;DHT22;29973;43.742;1.236;2023-10-19T13:33:39;23.20;99.90
44277;DHT22;29973;43.742;1.236;2023-10-19T13:36:07;23.10;99.90
44277;DHT22;29973;43.742;1.236;2023-10-19T13:38:33;23.00;99.90
44277;DHT22;29973;43.742;1.236;2023-10-19T13:41:02;23.00;99.90
44277;DHT22;29973;43.742;1.236;2023-10-19T13:43:28;22.90;99.90
44277;DHT22;29973;43.742;1.236;2023-10-19T13:45:54;22.70;99.90
44277;DHT22;29973;43.742;1.236;2023-10-19T13:48:20;22.70;99.90
44277;DHT22;29973;43.742;1.236;2023-10-19T13:50:48;22.70;99.90
44277;DHT22;29973;43.742;1.236;2023-10-19T13:53:17;22.60;99.90
44277;DHT22;29973;43.742;1.236;2023-10-19T13:55:44;22.50;99.90
44277;DHT22;29973;43.742;1.236;2023-10-19T13:58:10;22.50;99.90
44277;DHT22;29973;43.742;1.236;2023-10-19T14:00:36;22.40;99.90
44277;DHT22;29973;43.742;1.236;2023-10-19T14:03:13;22.40;99.90
44277;DHT22;29973;43.742;1.236;2023-10-19T14:05:44;22.30;99.90
44277;DHT22;29973;43.742;1.236;2023-10-19T14:08:14;22.40;99.90
44277;DHT22;29973;43.742;1.236;2023-10-19T14:10:41;22.40;99.90
44277;DHT22;29973;43.742;1.236;2023-10-19T14:13:07;22.20;99.90
44277;DHT22;29973;43.742;1.236;2023-10-19T14:15:33;21.90;99.90
44277;DHT22;29973;43.742;1.236;2023-10-19T14:18:00;21.90;99.90
44277;DHT22;29973;43.742;1.236;2023-10-19T14:20:29;21.80;99.90
44277;DHT22;29973;43.742;1.236;2023-10-19T14:22:56;21.80;99.90
44277;DHT22;29973;43.742;1.236;2023-10-19T14:25:22;22.00;99.90
44277;DHT22;29973;43.742;1.236;2023-10-19T14:27:53;22.10;99.90
44277;DHT22;29973;43.742;1.236;2023-10-19T14:30:25;22.00;99.90
44277;DHT22;29973;43.742;1.236;2023-10-19T14:32:52;21.90;99.90
44277;DHT22;29973;43.742;1.236;2023-10-19T14:35:23;21.90;99.90
44277;DHT22;29973;43.742;1.236;2023-10-19T14:37:52;21.70;99.90
44277;DHT22;29973;43.742;1.236;2023-10-19T14:40:24;21.60;99.90
44277;DHT22;29973;43.742;1.236;2023-10-19T14:42:54;21.50;99.90
44277;DHT22;29973;43.742;1.236;2023-10-19T14:45:21;21.40;99.90
44277;DHT22;29973;43.742;1.236;2023-10-19T14:47:52;21.40;99.90
44277;DHT22;29973;43.742;1.236;2023-10-19T14:50:20;21.30;99.90
44277;DHT22;29973;43.742;1.236;2023-10-19T14:52:47;21.30;99.90
44277;DHT22;29973;43.742;1.236;2023-10-19T14:55:14;21.20;99.90
44277;DHT22;29973;43.742;1.236;2023-10-19T14:57:44;21.20;99.90
44277;DHT22;29973;43.742;1.236;2023-10-19T15:00:19;21.20;99.90
44277;DHT22;29973;43.742;1.236;2023-10-19T15:02:56;21.10;99.90
44277;DHT22;29973;43.742;1.236;2023-10-19T15:05:23;21.00;99.90
44277;DHT22;29973;43.742;1.236;2023-10-19T15:07:51;20.90;99.90
44277;DHT22;29973;43.742;1.236;2023-10-19T15:10:18;20.90;99.90
44277;DHT22;29973;43.742;1.236;2023-10-19T15:12:44;20.80;99.90
44277;DHT22;29973;43.742;1.236;2023-10-19T15:15:10;20.70;99.90
44277;DHT22;29973;43.742;1.236;2023-10-19T15:17:55;20.60;99.90
44277;DHT22;29973;43.742;1.236;2023-10-19T15:20:25;20.70;99.90
44277;DHT22;29973;43.742;1.236;2023-10-19T15:22:51;20.70;99.90
44277;DHT22;29973;43.742;1.236;2023-10-19T15:25:18;20.70;99.90
44277;DHT22;29973;43.742;1.236;2023-10-19T15:27:45;20.70;99.90
44277;DHT22;29973;43.742;1.236;2023-10-19T15:30:14;20.60;99.90
44277;DHT22;29973;43.742;1.236;2023-10-19T15:32:41;20.60;99.90
44277;DHT22;29973;43.742;1.236;2023-10-19T15:35:09;20.50;99.90
44277;DHT22;29973;43.742;1.236;2023-10-19T15:37:38;20.50;99.90
44277;DHT22;29973;43.742;1.236;2023-10-19T15:40:04;20.40;99.90
44277;DHT22;29973;43.742;1.236;2023-10-19T15:42:30;20.30;99.90
44277;DHT22;29973;43.742;1.236;2023-10-19T15:44:56;20.20;99.90
44277;DHT22;29973;43.742;1.236;2023-10-19T15:47:22;20.20;99.90
44277;DHT22;29973;43.742;1.236;2023-10-19T15:49:54;20.00;99.90
44277;DHT22;29973;43.742;1.236;2023-10-19T15:52:25;19.90;99.90
44277;DHT22;29973;43.742;1.236;2023-10-19T15:54:51;19.70;99.90
44277;DHT22;29973;43.742;1.236;2023-10-19T15:57:18;19.70;99.90
44277;DHT22;29973;43.742;1.236;2023-10-19T15:59:45;19.60;99.90
44277;DHT22;29973;43.742;1.236;2023-10-19T16:02:11;19.60;99.90
44277;DHT22;29973;43.742;1.236;2023-10-19T16:04:41;19.50;99.90
44277;DHT22;29973;43.742;1.236;2023-10-19T16:07:12;19.60;99.90
44277;DHT22;29973;43.742;1.236;2023-10-19T16:09:39;19.60;99.90
44277;DHT22;29973;43.742;1.236;2023-10-19T16:12:05;19.50;99.90
44277;DHT22;29973;43.742;1.236;2023-10-19T16:14:34;19.40;99.90
44277;DHT22;29973;43.742;1.236;2023-10-19T16:17:00;19.30;99.90
44277;DHT22;29973;43.742;1.236;2023-10-19T16:19:26;19.20;99.90
44277;DHT22;29973;43.742;1.236;2023-10-19T16:21:51;19.10;99.90
44277;DHT22;29973;43.742;1.236;2023-10-19T16:24:17;19.10;99.90
44277;DHT22;29973;43.742;1.236;2023-10-19T16:26:43;19.10;99.90
44277;DHT22;29973;43.742;1.236;2023-10-19T16:29:10;19.10;99.90
44277;DHT22;29973;43.742;1.236;2023-10-19T16:31:43;19.10;99.90
44277;DHT22;29973;43.742;1.236;2023-10-19T16:34:12;19.00;99.90
44277;DHT22;29973;43.742;1.236;2023-10-19T16:36:39;18.90;99.90
44277;DHT22;29973;43.742;1.236;2023-10-19T16:39:06;18.90;99.90
44277;DHT22;29973;43.742;1.236;2023-10-19T16:41:58;18.70;99.90
44277;DHT22;29973;43.742;1.236;2023-10-19T16:44:24;18.50;99.90
44277;DHT22;29973;43.742;1.236;2023-10-19T16:46:50;18.50;99.90
44277;DHT22;29973;43.742;1.236;2023-10-19T16:49:16;18.50;99.90
44277;DHT22;29973;43.742;1.236;2023-10-19T16:51:43;18.50;99.90
44277;DHT22;29973;43.742;1.236;2023-10-19T16:54:12;18.50;99.90
44277;DHT22;29973;43.742;1.236;2023-10-19T16:56:40;18.40;99.90
44277;DHT22;29973;43.742;1.236;2023-10-19T16:59:08;18.40;99.90
44277;DHT22;29973;43.742;1.236;2023-10-19T17:01:37;18.50;99.90
44277;DHT22;29973;43.742;1.236;2023-10-19T17:04:03;18.40;99.90
44277;DHT22;29973;43.742;1.236;2023-10-19T17:06:30;18.40;99.90
44277;DHT22;29973;43.742;1.236;2023-10-19T17:09:07;18.30;99.90
44277;DHT22;29973;43.742;1.236;2023-10-19T17:11:34;18.40;99.90
44277;DHT22;29973;43.742;1.236;2023-10-19T17:14:00;18.30;99.90
44277;DHT22;29973;43.742;1.236;2023-10-19T17:16:27;18.20;99.90
44277;DHT22;29973;43.742;1.236;2023-10-19T17:18:52;18.10;99.90
44277;DHT22;29973;43.742;1.236;2023-10-19T17:21:18;18.10;99.90
44277;DHT22;29973;43.742;1.236;2023-10-19T17:23:44;18.10;99.90
44277;DHT22;29973;43.742;1.236;2023-10-19T17:26:10;18.00;99.90
44277;DHT22;29973;43.742;1.236;2023-10-19T17:28:35;18.00;99.90
44277;DHT22;29973;43.742;1.236;2023-10-19T17:31:02;18.00;99.90
44277;DHT22;29973;43.742;1.236;2023-10-19T17:33:30;17.90;99.90
44277;DHT22;29973;43.742;1.236;2023-10-19T17:35:56;17.90;99.90
44277;DHT22;29973;43.742;1.236;2023-10-19T17:38:22;17.90;99.90
44277;DHT22;29973;43.742;1.236;2023-10-19T17:40:48;17.80;99.90
44277;DHT22;29973;43.742;1.236;2023-10-19T17:43:13;17.90;99.90
44277;DHT22;29973;43.742;1.236;2023-10-19T17:45:45;17.90;99.90
44277;DHT22;29973;43.742;1.236;2023-10-19T17:48:12;17.90;99.90
44277;DHT22;29973;43.742;1.236;2023-10-19T17:50:38;17.90;99.90
44277;DHT22;29973;43.742;1.236;2023-10-19T17:53:04;17.90;99.90
44277;DHT22;29973;43.742;1.236;2023-10-19T17:55:30;17.80;99.90
44277;DHT22;29973;43.742;1.236;2023-10-19T17:57:57;17.80;99.90
44277;DHT22;29973;43.742;1.236;2023-10-19T18:00:25;17.80;99.90
44277;DHT22;29973;43.742;1.236;2023-10-19T18:02:51;17.80;99.90
44277;DHT22;29973;43.742;1.236;2023-10-19T18:05:17;17.80;99.90
44277;DHT22;29973;43.742;1.236;2023-10-19T18:07:43;17.90;99.90
44277;DHT22;29973;43.742;1.236;2023-10-19T18:10:09;17.80;99.90
44277;DHT22;29973;43.742;1.236;2023-10-19T18:12:39;17.70;99.90
44277;DHT22;29973;43.742;1.236;2023-10-19T18:15:05;17.70;99.90
44277;DHT22;29973;43.742;1.236;2023-10-19T18:17:37;17.80;99.90
44277;DHT22;29973;43.742;1.236;2023-10-19T18:20:03;17.80;99.90
44277;DHT22;29973;43.742;1.236;2023-10-19T18:22:34;17.70;99.90
44277;DHT22;29973;43.742;1.236;2023-10-19T18:25:01;17.70;99.90